sensor_id;sensor_type;location;lat;lon;timestamp;P1;durP1;ratioP1;P2;durP2;ratioP2
75154;SDS011;63735;44.730;37.818;2023-02-28T00:00:00;15.52;;;5.60;;
75154;SDS011;63735;44.730;37.818;2023-02-28T00:02:26;11.63;;;5.90;;
75154;SDS011;63735;44.730;37.818;2023-02-28T00:04:52;10.75;;;5.95;;
75154;SDS011;63735;44.730;37.818;2023-02-28T00:07:27;10.18;;;5.25;;
75154;SDS011;63735;44.730;37.818;2023-02-28T00:09:53;11.50;;;5.22;;
75154;SDS011;63735;44.730;37.818;2023-02-28T00:12:18;12.70;;;5.53;;
75154;SDS011;63735;44.730;37.818;2023-02-28T00:14:44;14.32;;;5.43;;
75154;SDS011;63735;44.730;37.818;2023-02-28T00:17:10;9.85;;;5.28;;
75154;SDS011;63735;44.730;37.818;2023-02-28T00:19:35;13.20;;;5.30;;
75154;SDS011;63735;44.730;37.818;2023-02-28T00:22:01;13.88;;;5.05;;
75154;SDS011;63735;44.730;37.818;2023-02-28T00:24:27;11.13;;;5.32;;
75154;SDS011;63735;44.730;37.818;2023-02-28T00:26:52;12.25;;;5.82;;
75154;SDS011;63735;44.730;37.818;2023-02-28T00:29:18;16.92;;;5.38;;
75154;SDS011;63735;44.730;37.818;2023-02-28T00:31:43;14.32;;;5.22;;
75154;SDS011;63735;44.730;37.818;2023-02-28T00:34:10;13.30;;;5.60;;
75154;SDS011;63735;44.730;37.818;2023-02-28T00:36:35;27.17;;;6.30;;
75154;SDS011;63735;44.730;37.818;2023-02-28T00:39:03;8.60;;;5.05;;
75154;SDS011;63735;44.730;37.818;2023-02-28T00:41:29;14.55;;;5.47;;
75154;SDS011;63735;44.730;37.818;2023-02-28T00:43:54;11.88;;;6.10;;
75154;SDS011;63735;44.730;37.818;2023-02-28T00:46:20;11.88;;;6.00;;
75154;SDS011;63735;44.730;37.818;2023-02-28T00:48:45;17.10;;;5.88;;
75154;SDS011;63735;44.730;37.818;2023-02-28T00:51:11;18.23;;;6.05;;
75154;SDS011;63735;44.730;37.818;2023-02-28T00:53:37;15.38;;;5.35;;
75154;SDS011;63735;44.730;37.818;2023-02-28T00:56:02;14.43;;;5.40;;
75154;SDS011;63735;44.730;37.818;2023-02-28T00:58:28;14.90;;;5.65;;
75154;SDS011;63735;44.730;37.818;2023-02-28T01:00:54;11.15;;;6.30;;
75154;SDS011;63735;44.730;37.818;2023-02-28T01:03:20;15.07;;;6.30;;
75154;SDS011;63735;44.730;37.818;2023-02-28T01:05:46;13.18;;;6.28;;
75154;SDS011;63735;44.730;37.818;2023-02-28T01:08:12;17.38;;;6.93;;
75154;SDS011;63735;44.730;37.818;2023-02-28T01:10:39;12.60;;;6.05;;
75154;SDS011;63735;44.730;37.818;2023-02-28T01:13:06;10.75;;;5.68;;
75154;SDS011;63735;44.730;37.818;2023-02-28T01:15:32;13.10;;;6.13;;
75154;SDS011;63735;44.730;37.818;2023-02-28T01:17:58;14.27;;;6.95;;
75154;SDS011;63735;44.730;37.818;2023-02-28T01:20:23;15.23;;;6.32;;
75154;SDS011;63735;44.730;37.818;2023-02-28T01:22:49;11.85;;;6.07;;
75154;SDS011;63735;44.730;37.818;2023-02-28T01:25:15;12.43;;;5.15;;
75154;SDS011;63735;44.730;37.818;2023-02-28T01:27:40;10.13;;;5.60;;
75154;SDS011;63735;44.730;37.818;2023-02-28T01:30:06;11.80;;;5.82;;
75154;SDS011;63735;44.730;37.818;2023-02-28T01:32:32;14.00;;;5.88;;
75154;SDS011;63735;44.730;37.818;2023-02-28T01:34:58;10.52;;;5.40;;
75154;SDS011;63735;44.730;37.818;2023-02-28T01:37:23;10.93;;;5.88;;
75154;SDS011;63735;44.730;37.818;2023-02-28T01:39:49;10.05;;;5.15;;
75154;SDS011;63735;44.730;37.818;2023-02-28T01:42:15;15.82;;;5.72;;
75154;SDS011;63735;44.730;37.818;2023-02-28T01:45:00;14.23;;;5.82;;
75154;SDS011;63735;44.730;37.818;2023-02-28T01:47:28;14.00;;;5.72;;
75154;SDS011;63735;44.730;37.818;2023-02-28T01:49:55;13.57;;;6.45;;
75154;SDS011;63735;44.730;37.818;2023-02-28T01:52:21;14.77;;;5.80;;
75154;SDS011;63735;44.730;37.818;2023-02-28T01:54:50;14.73;;;5.95;;
75154;SDS011;63735;44.730;37.818;2023-02-28T01:57:17;13.73;;;5.70;;
75154;SDS011;63735;44.730;37.818;2023-02-28T01:59:46;9.43;;;5.60;;
75154;SDS011;63735;44.730;37.818;2023-02-28T02:02:16;12.07;;;6.30;;
75154;SDS011;63735;44.730;37.818;2023-02-28T02:05:03;17.15;;;6.25;;
75154;SDS011;63735;44.730;37.818;2023-02-28T02:07:35;9.30;;;5.60;;
75154;SDS011;63735;44.730;37.818;2023-02-28T02:10:04;12.45;;;5.65;;
75154;SDS011;63735;44.730;37.818;2023-02-28T02:15:08;9.18;;;5.85;;
75154;SDS011;63735;44.730;37.818;2023-02-28T02:17:39;9.50;;;5.43;;
75154;SDS011;63735;44.730;37.818;2023-02-28T02:22:49;11.63;;;6.15;;
75154;SDS011;63735;44.730;37.818;2023-02-28T02:28:05;10.82;;;5.38;;
75154;SDS011;63735;44.730;37.818;2023-02-28T02:40:46;9.80;;;5.28;;
75154;SDS011;63735;44.730;37.818;2023-02-28T02:43:16;9.75;;;5.47;;
75154;SDS011;63735;44.730;37.818;2023-02-28T02:46:04;11.25;;;5.47;;
75154;SDS011;63735;44.730;37.818;2023-02-28T02:48:32;10.27;;;4.95;;
75154;SDS011;63735;44.730;37.818;2023-02-28T02:51:00;11.18;;;5.57;;
75154;SDS011;63735;44.730;37.818;2023-02-28T02:53:30;12.40;;;6.15;;
75154;SDS011;63735;44.730;37.818;2023-02-28T02:55:59;12.45;;;6.00;;
75154;SDS011;63735;44.730;37.818;2023-02-28T02:58:27;10.15;;;6.30;;
75154;SDS011;63735;44.730;37.818;2023-02-28T03:00:55;10.02;;;5.60;;
75154;SDS011;63735;44.730;37.818;2023-02-28T03:03:23;10.35;;;5.95;;
75154;SDS011;63735;44.730;37.818;2023-02-28T03:05:58;11.15;;;6.55;;
75154;SDS011;63735;44.730;37.818;2023-02-28T03:08:24;10.23;;;5.90;;
75154;SDS011;63735;44.730;37.818;2023-02-28T03:10:51;15.80;;;5.22;;
75154;SDS011;63735;44.730;37.818;2023-02-28T03:18:36;15.57;;;5.93;;
75154;SDS011;63735;44.730;37.818;2023-02-28T03:23:45;11.25;;;5.20;;
75154;SDS011;63735;44.730;37.818;2023-02-28T03:26:17;11.32;;;5.20;;
75154;SDS011;63735;44.730;37.818;2023-02-28T03:28:52;10.85;;;5.93;;
75154;SDS011;63735;44.730;37.818;2023-02-28T03:31:38;13.75;;;5.93;;
75154;SDS011;63735;44.730;37.818;2023-02-28T03:34:16;13.07;;;5.28;;
75154;SDS011;63735;44.730;37.818;2023-02-28T03:36:45;15.82;;;5.80;;
75154;SDS011;63735;44.730;37.818;2023-02-28T03:39:16;10.60;;;5.38;;
75154;SDS011;63735;44.730;37.818;2023-02-28T03:44:17;14.88;;;6.03;;
75154;SDS011;63735;44.730;37.818;2023-02-28T03:46:49;12.70;;;5.88;;
75154;SDS011;63735;44.730;37.818;2023-02-28T03:49:16;14.27;;;5.85;;
75154;SDS011;63735;44.730;37.818;2023-02-28T03:51:43;12.60;;;5.05;;
75154;SDS011;63735;44.730;37.818;2023-02-28T03:54:12;13.73;;;5.93;;
75154;SDS011;63735;44.730;37.818;2023-02-28T03:56:40;10.75;;;5.65;;
75154;SDS011;63735;44.730;37.818;2023-02-28T03:59:13;12.95;;;5.40;;
75154;SDS011;63735;44.730;37.818;2023-02-28T04:01:40;10.93;;;5.47;;
75154;SDS011;63735;44.730;37.818;2023-02-28T04:04:07;12.77;;;5.50;;
75154;SDS011;63735;44.730;37.818;2023-02-28T04:06:33;13.55;;;5.80;;
75154;SDS011;63735;44.730;37.818;2023-02-28T04:08:59;11.60;;;5.68;;
75154;SDS011;63735;44.730;37.818;2023-02-28T04:11:28;14.07;;;5.95;;
75154;SDS011;63735;44.730;37.818;2023-02-28T04:13:55;14.15;;;5.97;;
75154;SDS011;63735;44.730;37.818;2023-02-28T04:16:21;12.77;;;5.40;;
75154;SDS011;63735;44.730;37.818;2023-02-28T04:18:46;12.75;;;5.82;;
75154;SDS011;63735;44.730;37.818;2023-02-28T04:21:12;14.88;;;5.15;;
75154;SDS011;63735;44.730;37.818;2023-02-28T04:23:38;11.98;;;5.18;;
75154;SDS011;63735;44.730;37.818;2023-02-28T04:26:04;10.07;;;5.35;;
75154;SDS011;63735;44.730;37.818;2023-02-28T04:28:30;17.60;;;6.22;;
75154;SDS011;63735;44.730;37.818;2023-02-28T04:30:57;11.70;;;5.15;;
75154;SDS011;63735;44.730;37.818;2023-02-28T04:33:23;11.38;;;5.35;;
75154;SDS011;63735;44.730;37.818;2023-02-28T04:35:57;15.40;;;6.60;;
75154;SDS011;63735;44.730;37.818;2023-02-28T04:38:23;14.93;;;6.18;;
75154;SDS011;63735;44.730;37.818;2023-02-28T04:40:48;14.85;;;5.97;;
75154;SDS011;63735;44.730;37.818;2023-02-28T04:43:14;11.55;;;5.82;;
75154;SDS011;63735;44.730;37.818;2023-02-28T04:45:40;10.55;;;5.28;;
75154;SDS011;63735;44.730;37.818;2023-02-28T04:48:05;11.68;;;5.80;;
75154;SDS011;63735;44.730;37.818;2023-02-28T04:50:31;12.85;;;4.90;;
75154;SDS011;63735;44.730;37.818;2023-02-28T04:52:56;13.10;;;5.40;;
75154;SDS011;63735;44.730;37.818;2023-02-28T04:55:22;21.00;;;5.28;;
75154;SDS011;63735;44.730;37.818;2023-02-28T04:57:48;10.88;;;5.45;;
75154;SDS011;63735;44.730;37.818;2023-02-28T05:00:13;10.70;;;5.40;;
75154;SDS011;63735;44.730;37.818;2023-02-28T05:02:42;13.52;;;4.95;;
75154;SDS011;63735;44.730;37.818;2023-02-28T05:05:07;11.65;;;5.10;;
75154;SDS011;63735;44.730;37.818;2023-02-28T05:07:33;9.30;;;4.43;;
75154;SDS011;63735;44.730;37.818;2023-02-28T05:09:59;10.68;;;4.05;;
75154;SDS011;63735;44.730;37.818;2023-02-28T05:12:24;13.23;;;5.30;;
75154;SDS011;63735;44.730;37.818;2023-02-28T05:14:50;7.18;;;5.05;;
75154;SDS011;63735;44.730;37.818;2023-02-28T05:17:16;12.75;;;5.47;;
75154;SDS011;63735;44.730;37.818;2023-02-28T05:19:42;10.32;;;4.68;;
75154;SDS011;63735;44.730;37.818;2023-02-28T05:22:12;17.88;;;6.00;;
75154;SDS011;63735;44.730;37.818;2023-02-28T05:24:38;11.05;;;4.78;;
75154;SDS011;63735;44.730;37.818;2023-02-28T05:27:03;19.25;;;5.20;;
75154;SDS011;63735;44.730;37.818;2023-02-28T05:29:29;11.27;;;5.35;;
75154;SDS011;63735;44.730;37.818;2023-02-28T05:31:55;16.08;;;4.80;;
75154;SDS011;63735;44.730;37.818;2023-02-28T05:34:20;20.77;;;5.22;;
75154;SDS011;63735;44.730;37.818;2023-02-28T05:36:46;10.60;;;4.90;;
75154;SDS011;63735;44.730;37.818;2023-02-28T05:39:13;13.23;;;5.03;;
75154;SDS011;63735;44.730;37.818;2023-02-28T05:41:42;9.05;;;4.35;;
75154;SDS011;63735;44.730;37.818;2023-02-28T05:44:08;16.17;;;5.50;;
75154;SDS011;63735;44.730;37.818;2023-02-28T05:46:34;12.35;;;4.95;;
75154;SDS011;63735;44.730;37.818;2023-02-28T05:48:59;10.38;;;4.72;;
75154;SDS011;63735;44.730;37.818;2023-02-28T05:51:26;12.30;;;4.60;;
75154;SDS011;63735;44.730;37.818;2023-02-28T05:53:51;12.05;;;5.13;;
75154;SDS011;63735;44.730;37.818;2023-02-28T05:56:17;11.98;;;4.90;;
75154;SDS011;63735;44.730;37.818;2023-02-28T05:58:43;18.38;;;5.13;;
75154;SDS011;63735;44.730;37.818;2023-02-28T06:01:22;14.10;;;5.65;;
75154;SDS011;63735;44.730;37.818;2023-02-28T06:03:48;10.48;;;4.78;;
75154;SDS011;63735;44.730;37.818;2023-02-28T06:06:14;13.90;;;4.90;;
75154;SDS011;63735;44.730;37.818;2023-02-28T06:08:39;13.15;;;5.20;;
75154;SDS011;63735;44.730;37.818;2023-02-28T06:11:05;24.33;;;7.70;;
75154;SDS011;63735;44.730;37.818;2023-02-28T06:13:32;20.95;;;6.25;;
75154;SDS011;63735;44.730;37.818;2023-02-28T06:16:00;16.52;;;5.97;;
75154;SDS011;63735;44.730;37.818;2023-02-28T06:18:26;16.88;;;5.80;;
75154;SDS011;63735;44.730;37.818;2023-02-28T06:20:55;14.20;;;4.80;;
75154;SDS011;63735;44.730;37.818;2023-02-28T06:23:21;15.75;;;5.57;;
75154;SDS011;63735;44.730;37.818;2023-02-28T06:25:47;13.23;;;4.40;;
75154;SDS011;63735;44.730;37.818;2023-02-28T06:28:12;28.27;;;5.40;;
75154;SDS011;63735;44.730;37.818;2023-02-28T06:30:38;19.48;;;5.47;;
75154;SDS011;63735;44.730;37.818;2023-02-28T06:33:04;27.85;;;6.88;;
75154;SDS011;63735;44.730;37.818;2023-02-28T06:35:30;16.67;;;5.57;;
75154;SDS011;63735;44.730;37.818;2023-02-28T06:37:56;13.60;;;4.57;;
75154;SDS011;63735;44.730;37.818;2023-02-28T06:40:21;17.60;;;5.10;;
75154;SDS011;63735;44.730;37.818;2023-02-28T06:42:47;22.38;;;6.45;;
75154;SDS011;63735;44.730;37.818;2023-02-28T06:45:12;16.85;;;5.93;;
75154;SDS011;63735;44.730;37.818;2023-02-28T06:47:39;17.98;;;5.35;;
75154;SDS011;63735;44.730;37.818;2023-02-28T06:50:05;19.48;;;6.20;;
75154;SDS011;63735;44.730;37.818;2023-02-28T06:52:31;16.13;;;4.68;;
75154;SDS011;63735;44.730;37.818;2023-02-28T06:54:57;14.57;;;5.00;;
75154;SDS011;63735;44.730;37.818;2023-02-28T06:57:27;13.63;;;5.32;;
75154;SDS011;63735;44.730;37.818;2023-02-28T06:59:52;14.00;;;4.72;;
75154;SDS011;63735;44.730;37.818;2023-02-28T07:02:18;19.27;;;5.30;;
75154;SDS011;63735;44.730;37.818;2023-02-28T07:04:43;14.88;;;5.15;;
75154;SDS011;63735;44.730;37.818;2023-02-28T07:07:09;14.13;;;4.88;;
75154;SDS011;63735;44.730;37.818;2023-02-28T07:09:35;16.55;;;5.35;;
75154;SDS011;63735;44.730;37.818;2023-02-28T07:12:01;10.90;;;4.47;;
75154;SDS011;63735;44.730;37.818;2023-02-28T07:14:27;17.15;;;4.80;;
75154;SDS011;63735;44.730;37.818;2023-02-28T07:16:52;17.45;;;4.85;;
75154;SDS011;63735;44.730;37.818;2023-02-28T07:19:18;10.23;;;4.13;;
75154;SDS011;63735;44.730;37.818;2023-02-28T07:21:43;11.80;;;4.38;;
75154;SDS011;63735;44.730;37.818;2023-02-28T07:24:10;14.20;;;4.70;;
75154;SDS011;63735;44.730;37.818;2023-02-28T07:26:36;7.60;;;4.32;;
75154;SDS011;63735;44.730;37.818;2023-02-28T07:29:01;11.93;;;4.70;;
75154;SDS011;63735;44.730;37.818;2023-02-28T07:31:27;8.73;;;4.75;;
75154;SDS011;63735;44.730;37.818;2023-02-28T07:33:53;10.35;;;4.20;;
75154;SDS011;63735;44.730;37.818;2023-02-28T07:36:19;8.18;;;3.97;;
75154;SDS011;63735;44.730;37.818;2023-02-28T07:38:46;11.45;;;4.35;;
75154;SDS011;63735;44.730;37.818;2023-02-28T07:41:19;12.25;;;4.43;;
75154;SDS011;63735;44.730;37.818;2023-02-28T07:43:45;9.45;;;3.88;;
75154;SDS011;63735;44.730;37.818;2023-02-28T07:46:11;14.25;;;4.05;;
75154;SDS011;63735;44.730;37.818;2023-02-28T07:48:37;6.60;;;3.72;;
75154;SDS011;63735;44.730;37.818;2023-02-28T07:51:03;14.82;;;4.72;;
75154;SDS011;63735;44.730;37.818;2023-02-28T07:53:29;11.30;;;4.80;;
75154;SDS011;63735;44.730;37.818;2023-02-28T07:55:59;13.93;;;5.60;;
75154;SDS011;63735;44.730;37.818;2023-02-28T07:58:25;8.23;;;4.05;;
75154;SDS011;63735;44.730;37.818;2023-02-28T08:00:51;10.48;;;4.55;;
75154;SDS011;63735;44.730;37.818;2023-02-28T08:03:20;14.75;;;5.75;;
75154;SDS011;63735;44.730;37.818;2023-02-28T08:05:46;10.73;;;4.70;;
75154;SDS011;63735;44.730;37.818;2023-02-28T08:08:11;12.57;;;5.47;;
75154;SDS011;63735;44.730;37.818;2023-02-28T08:10:37;15.40;;;5.10;;
75154;SDS011;63735;44.730;37.818;2023-02-28T08:13:03;13.32;;;4.82;;
75154;SDS011;63735;44.730;37.818;2023-02-28T08:15:29;12.82;;;4.38;;
75154;SDS011;63735;44.730;37.818;2023-02-28T08:17:54;10.25;;;5.00;;
75154;SDS011;63735;44.730;37.818;2023-02-28T08:20:22;10.48;;;4.38;;
75154;SDS011;63735;44.730;37.818;2023-02-28T08:22:47;9.40;;;4.55;;
75154;SDS011;63735;44.730;37.818;2023-02-28T08:25:13;12.48;;;5.63;;
75154;SDS011;63735;44.730;37.818;2023-02-28T08:27:39;12.65;;;5.35;;
75154;SDS011;63735;44.730;37.818;2023-02-28T08:30:05;10.88;;;5.78;;
75154;SDS011;63735;44.730;37.818;2023-02-28T08:32:32;16.65;;;5.50;;
75154;SDS011;63735;44.730;37.818;2023-02-28T08:34:57;6.95;;;2.88;;
75154;SDS011;63735;44.730;37.818;2023-02-28T08:37:23;8.18;;;4.22;;
75154;SDS011;63735;44.730;37.818;2023-02-28T08:39:49;6.80;;;3.38;;
75154;SDS011;63735;44.730;37.818;2023-02-28T08:42:14;8.10;;;3.90;;
75154;SDS011;63735;44.730;37.818;2023-02-28T08:44:40;14.15;;;5.15;;
75154;SDS011;63735;44.730;37.818;2023-02-28T08:47:06;10.55;;;5.43;;
75154;SDS011;63735;44.730;37.818;2023-02-28T08:49:32;16.58;;;5.18;;
75154;SDS011;63735;44.730;37.818;2023-02-28T08:51:57;11.85;;;5.45;;
75154;SDS011;63735;44.730;37.818;2023-02-28T08:54:23;14.13;;;4.22;;
75154;SDS011;63735;44.730;37.818;2023-02-28T08:56:49;9.27;;;4.93;;
75154;SDS011;63735;44.730;37.818;2023-02-28T08:59:15;14.45;;;4.22;;
75154;SDS011;63735;44.730;37.818;2023-02-28T09:01:40;4.20;;;2.67;;
75154;SDS011;63735;44.730;37.818;2023-02-28T09:04:09;4.13;;;2.25;;
75154;SDS011;63735;44.730;37.818;2023-02-28T09:06:36;13.70;;;4.07;;
75154;SDS011;63735;44.730;37.818;2023-02-28T09:09:02;12.82;;;5.00;;
75154;SDS011;63735;44.730;37.818;2023-02-28T09:11:31;12.40;;;4.40;;
75154;SDS011;63735;44.730;37.818;2023-02-28T09:13:57;9.77;;;4.22;;
75154;SDS011;63735;44.730;37.818;2023-02-28T09:16:24;7.38;;;3.70;;
75154;SDS011;63735;44.730;37.818;2023-02-28T09:18:50;13.77;;;4.45;;
75154;SDS011;63735;44.730;37.818;2023-02-28T09:21:16;11.70;;;4.20;;
75154;SDS011;63735;44.730;37.818;2023-02-28T09:23:42;7.20;;;3.75;;
75154;SDS011;63735;44.730;37.818;2023-02-28T09:26:12;6.95;;;2.90;;
75154;SDS011;63735;44.730;37.818;2023-02-28T09:28:38;9.45;;;4.20;;
75154;SDS011;63735;44.730;37.818;2023-02-28T09:31:04;9.77;;;4.55;;
75154;SDS011;63735;44.730;37.818;2023-02-28T09:33:30;16.98;;;5.38;;
75154;SDS011;63735;44.730;37.818;2023-02-28T09:35:59;8.18;;;4.75;;
75154;SDS011;63735;44.730;37.818;2023-02-28T09:38:26;11.25;;;4.60;;
75154;SDS011;63735;44.730;37.818;2023-02-28T09:41:03;7.93;;;4.07;;
75154;SDS011;63735;44.730;37.818;2023-02-28T09:43:32;7.07;;;4.07;;
75154;SDS011;63735;44.730;37.818;2023-02-28T09:46:00;7.80;;;4.20;;
75154;SDS011;63735;44.730;37.818;2023-02-28T09:48:29;14.23;;;4.07;;
75154;SDS011;63735;44.730;37.818;2023-02-28T09:51:04;24.88;;;5.97;;
75154;SDS011;63735;44.730;37.818;2023-02-28T09:53:31;8.60;;;4.50;;
75154;SDS011;63735;44.730;37.818;2023-02-28T09:56:11;12.07;;;4.65;;
75154;SDS011;63735;44.730;37.818;2023-02-28T09:58:41;5.80;;;3.78;;
75154;SDS011;63735;44.730;37.818;2023-02-28T10:01:21;4.75;;;2.58;;
75154;SDS011;63735;44.730;37.818;2023-02-28T10:06:17;10.25;;;4.00;;
75154;SDS011;63735;44.730;37.818;2023-02-28T10:08:52;10.23;;;3.70;;
75154;SDS011;63735;44.730;37.818;2023-02-28T10:11:20;9.80;;;5.00;;
75154;SDS011;63735;44.730;37.818;2023-02-28T10:16:37;7.05;;;4.80;;
75154;SDS011;63735;44.730;37.818;2023-02-28T10:21:31;8.55;;;5.13;;
75154;SDS011;63735;44.730;37.818;2023-02-28T10:24:03;10.65;;;5.43;;
75154;SDS011;63735;44.730;37.818;2023-02-28T10:26:29;8.05;;;4.60;;
75154;SDS011;63735;44.730;37.818;2023-02-28T10:31:22;10.82;;;4.53;;
75154;SDS011;63735;44.730;37.818;2023-02-28T10:33:48;6.13;;;3.92;;
75154;SDS011;63735;44.730;37.818;2023-02-28T10:36:18;6.45;;;4.05;;
75154;SDS011;63735;44.730;37.818;2023-02-28T10:38:44;8.93;;;5.07;;
75154;SDS011;63735;44.730;37.818;2023-02-28T10:41:12;9.00;;;5.00;;
75154;SDS011;63735;44.730;37.818;2023-02-28T10:43:38;9.85;;;4.65;;
75154;SDS011;63735;44.730;37.818;2023-02-28T10:51:02;25.58;;;5.70;;
75154;SDS011;63735;44.730;37.818;2023-02-28T10:59:22;7.75;;;4.00;;
75154;SDS011;63735;44.730;37.818;2023-02-28T11:01:20;10.90;;;3.92;;
75154;SDS011;63735;44.730;37.818;2023-02-28T11:03:46;8.00;;;4.40;;
75154;SDS011;63735;44.730;37.818;2023-02-28T11:06:16;6.85;;;3.80;;
75154;SDS011;63735;44.730;37.818;2023-02-28T11:08:55;6.65;;;4.10;;
75154;SDS011;63735;44.730;37.818;2023-02-28T11:11:21;5.65;;;2.85;;
75154;SDS011;63735;44.730;37.818;2023-02-28T11:13:50;9.98;;;4.75;;
75154;SDS011;63735;44.730;37.818;2023-02-28T11:16:17;5.32;;;3.65;;
75154;SDS011;63735;44.730;37.818;2023-02-28T11:18:49;6.15;;;3.92;;
75154;SDS011;63735;44.730;37.818;2023-02-28T11:21:16;11.60;;;4.13;;
75154;SDS011;63735;44.730;37.818;2023-02-28T11:23:43;8.77;;;5.10;;
75154;SDS011;63735;44.730;37.818;2023-02-28T11:26:10;6.97;;;4.63;;
75154;SDS011;63735;44.730;37.818;2023-02-28T11:28:39;8.40;;;4.57;;
75154;SDS011;63735;44.730;37.818;2023-02-28T11:33:41;9.95;;;4.25;;
75154;SDS011;63735;44.730;37.818;2023-02-28T11:36:18;10.10;;;4.05;;
75154;SDS011;63735;44.730;37.818;2023-02-28T11:38:44;8.77;;;3.72;;
75154;SDS011;63735;44.730;37.818;2023-02-28T11:41:14;7.00;;;3.33;;
75154;SDS011;63735;44.730;37.818;2023-02-28T11:47:04;10.40;;;2.88;;
75154;SDS011;63735;44.730;37.818;2023-02-28T11:49:32;8.63;;;4.15;;
75154;SDS011;63735;44.730;37.818;2023-02-28T11:52:02;8.88;;;4.25;;
75154;SDS011;63735;44.730;37.818;2023-02-28T11:57:15;6.75;;;3.97;;
75154;SDS011;63735;44.730;37.818;2023-02-28T12:04:48;4.53;;;3.20;;
75154;SDS011;63735;44.730;37.818;2023-02-28T12:10:05;12.30;;;4.07;;
75154;SDS011;63735;44.730;37.818;2023-02-28T12:12:38;8.05;;;4.10;;
75154;SDS011;63735;44.730;37.818;2023-02-28T12:27:47;15.48;;;4.63;;
75154;SDS011;63735;44.730;37.818;2023-02-28T12:30:16;13.75;;;4.95;;
75154;SDS011;63735;44.730;37.818;2023-02-28T12:32:51;12.60;;;4.90;;
75154;SDS011;63735;44.730;37.818;2023-02-28T12:35:19;12.23;;;4.65;;
75154;SDS011;63735;44.730;37.818;2023-02-28T12:37:57;15.50;;;5.32;;
75154;SDS011;63735;44.730;37.818;2023-02-28T12:40:30;10.60;;;4.35;;
75154;SDS011;63735;44.730;37.818;2023-02-28T12:43:04;12.10;;;4.60;;
75154;SDS011;63735;44.730;37.818;2023-02-28T12:48:04;10.90;;;3.88;;
75154;SDS011;63735;44.730;37.818;2023-02-28T12:50:31;8.05;;;4.57;;
75154;SDS011;63735;44.730;37.818;2023-02-28T12:53:13;15.63;;;6.13;;
75154;SDS011;63735;44.730;37.818;2023-02-28T12:58:27;12.00;;;5.45;;
75154;SDS011;63735;44.730;37.818;2023-02-28T13:01:14;18.25;;;6.78;;
75154;SDS011;63735;44.730;37.818;2023-02-28T13:08:59;13.90;;;6.18;;
75154;SDS011;63735;44.730;37.818;2023-02-28T13:11:31;16.15;;;6.50;;
75154;SDS011;63735;44.730;37.818;2023-02-28T13:13:58;18.48;;;6.22;;
75154;SDS011;63735;44.730;37.818;2023-02-28T13:16:24;18.65;;;6.38;;
75154;SDS011;63735;44.730;37.818;2023-02-28T13:18:50;12.13;;;6.55;;
75154;SDS011;63735;44.730;37.818;2023-02-28T13:21:28;23.42;;;6.75;;
75154;SDS011;63735;44.730;37.818;2023-02-28T13:23:59;24.35;;;6.75;;
75154;SDS011;63735;44.730;37.818;2023-02-28T13:31:29;20.20;;;7.90;;
75154;SDS011;63735;44.730;37.818;2023-02-28T13:36:28;18.85;;;8.45;;
75154;SDS011;63735;44.730;37.818;2023-02-28T13:38:57;25.40;;;9.50;;
75154;SDS011;63735;44.730;37.818;2023-02-28T13:44:02;38.13;;;9.32;;
75154;SDS011;63735;44.730;37.818;2023-02-28T13:46:28;24.25;;;9.80;;
75154;SDS011;63735;44.730;37.818;2023-02-28T13:48:54;23.88;;;10.15;;
75154;SDS011;63735;44.730;37.818;2023-02-28T13:51:52;27.95;;;10.90;;
75154;SDS011;63735;44.730;37.818;2023-02-28T13:54:24;24.80;;;9.60;;
75154;SDS011;63735;44.730;37.818;2023-02-28T13:57:12;22.00;;;9.05;;
75154;SDS011;63735;44.730;37.818;2023-02-28T14:02:27;27.95;;;11.57;;
75154;SDS011;63735;44.730;37.818;2023-02-28T14:07:53;32.65;;;10.90;;
75154;SDS011;63735;44.730;37.818;2023-02-28T14:10:27;41.97;;;10.48;;
75154;SDS011;63735;44.730;37.818;2023-02-28T14:15:38;27.02;;;10.18;;
75154;SDS011;63735;44.730;37.818;2023-02-28T14:20:31;29.48;;;10.35;;
75154;SDS011;63735;44.730;37.818;2023-02-28T14:38:44;38.55;;;11.95;;
75154;SDS011;63735;44.730;37.818;2023-02-28T14:41:03;24.38;;;9.65;;
75154;SDS011;63735;44.730;37.818;2023-02-28T14:43:29;24.80;;;11.02;;
75154;SDS011;63735;44.730;37.818;2023-02-28T14:46:00;26.05;;;10.50;;
75154;SDS011;63735;44.730;37.818;2023-02-28T14:48:26;30.10;;;10.98;;
75154;SDS011;63735;44.730;37.818;2023-02-28T14:50:53;27.25;;;11.00;;
75154;SDS011;63735;44.730;37.818;2023-02-28T14:53:20;28.42;;;11.00;;
75154;SDS011;63735;44.730;37.818;2023-02-28T14:55:46;34.25;;;11.77;;
75154;SDS011;63735;44.730;37.818;2023-02-28T14:58:20;23.52;;;9.32;;
75154;SDS011;63735;44.730;37.818;2023-02-28T15:00:47;21.83;;;10.85;;
75154;SDS011;63735;44.730;37.818;2023-02-28T15:03:24;23.00;;;9.43;;
75154;SDS011;63735;44.730;37.818;2023-02-28T15:06:23;29.05;;;11.23;;
75154;SDS011;63735;44.730;37.818;2023-02-28T15:08:43;26.30;;;11.27;;
75154;SDS011;63735;44.730;37.818;2023-02-28T15:11:13;30.95;;;11.60;;
75154;SDS011;63735;44.730;37.818;2023-02-28T15:13:57;26.60;;;11.48;;
75154;SDS011;63735;44.730;37.818;2023-02-28T15:16:37;28.30;;;11.85;;
75154;SDS011;63735;44.730;37.818;2023-02-28T15:21:33;31.15;;;12.73;;
75154;SDS011;63735;44.730;37.818;2023-02-28T15:26:36;31.60;;;12.85;;
75154;SDS011;63735;44.730;37.818;2023-02-28T15:29:05;29.77;;;12.43;;
75154;SDS011;63735;44.730;37.818;2023-02-28T15:31:32;30.17;;;13.57;;
75154;SDS011;63735;44.730;37.818;2023-02-28T15:34:02;31.52;;;13.10;;
75154;SDS011;63735;44.730;37.818;2023-02-28T15:36:29;31.70;;;11.30;;
75154;SDS011;63735;44.730;37.818;2023-02-28T15:38:59;32.55;;;11.77;;
75154;SDS011;63735;44.730;37.818;2023-02-28T15:41:26;25.63;;;11.30;;
75154;SDS011;63735;44.730;37.818;2023-02-28T15:46:36;36.70;;;12.43;;
75154;SDS011;63735;44.730;37.818;2023-02-28T15:49:02;27.88;;;11.60;;
75154;SDS011;63735;44.730;37.818;2023-02-28T15:51:36;31.65;;;10.65;;
75154;SDS011;63735;44.730;37.818;2023-02-28T15:54:07;30.70;;;9.55;;
75154;SDS011;63735;44.730;37.818;2023-02-28T15:56:39;30.67;;;10.77;;
75154;SDS011;63735;44.730;37.818;2023-02-28T15:59:12;36.70;;;11.50;;
75154;SDS011;63735;44.730;37.818;2023-02-28T16:01:39;27.10;;;9.63;;
75154;SDS011;63735;44.730;37.818;2023-02-28T16:04:06;20.23;;;8.15;;
75154;SDS011;63735;44.730;37.818;2023-02-28T16:06:39;21.40;;;8.90;;
75154;SDS011;63735;44.730;37.818;2023-02-28T16:09:14;19.30;;;7.75;;
75154;SDS011;63735;44.730;37.818;2023-02-28T16:11:41;27.98;;;8.40;;
75154;SDS011;63735;44.730;37.818;2023-02-28T16:14:15;21.52;;;7.47;;
75154;SDS011;63735;44.730;37.818;2023-02-28T16:16:45;25.02;;;7.25;;
75154;SDS011;63735;44.730;37.818;2023-02-28T16:19:11;26.90;;;8.65;;
75154;SDS011;63735;44.730;37.818;2023-02-28T16:21:36;22.95;;;8.00;;
75154;SDS011;63735;44.730;37.818;2023-02-28T16:24:02;17.52;;;8.15;;
75154;SDS011;63735;44.730;37.818;2023-02-28T16:26:27;26.17;;;7.63;;
75154;SDS011;63735;44.730;37.818;2023-02-28T16:28:53;20.95;;;7.28;;
75154;SDS011;63735;44.730;37.818;2023-02-28T16:31:19;15.65;;;7.10;;
75154;SDS011;63735;44.730;37.818;2023-02-28T16:33:45;23.20;;;7.78;;
75154;SDS011;63735;44.730;37.818;2023-02-28T16:36:16;16.77;;;8.32;;
75154;SDS011;63735;44.730;37.818;2023-02-28T16:38:42;25.92;;;7.45;;
75154;SDS011;63735;44.730;37.818;2023-02-28T16:41:07;22.25;;;7.70;;